createdAt,value
2018-09-27T00:01:25.363Z,99018.05
2018-09-27T00:03:53.019Z,99011.89
2018-09-27T00:06:20.682Z,99015.36
2018-09-27T00:08:48.355Z,99014.55
2018-09-27T00:11:16.009Z,99014.30
2018-09-27T00:13:43.703Z,99014.83
2018-09-27T00:16:11.374Z,99014.57
2018-09-27T00:18:39.039Z,99014.03
2018-09-27T00:21:06.702Z,99015.38
2018-09-27T00:23:34.345Z,99001.69
2018-09-27T00:26:02.241Z,99003.56
2018-09-27T00:28:29.901Z,99004.09
2018-09-27T00:30:57.562Z,99001.69
2018-09-27T00:33:25.214Z,98995.78
2018-09-27T00:35:52.893Z,98998.99
2018-09-27T00:38:20.568Z,98990.41
2018-09-27T00:40:48.225Z,98988.25
2018-09-27T00:43:15.888Z,98990.15
2018-09-27T00:45:44.281Z,98985.00
2018-09-27T00:48:13.265Z,98983.43
2018-09-27T00:50:41.121Z,98987.71
2018-09-27T00:53:09.112Z,98986.12
2018-09-27T00:55:36.778Z,98989.36
2018-09-27T00:58:04.444Z,98988.80
2018-09-27T01:00:32.102Z,98990.42
2018-09-27T01:02:59.741Z,98990.15
2018-09-27T01:05:27.438Z,98989.89
2018-09-27T01:07:55.086Z,98986.39
2018-09-27T01:10:22.753Z,98988.29
2018-09-27T01:12:50.444Z,98980.76
2018-09-27T01:15:18.116Z,98982.66
2018-09-27T01:17:45.796Z,98977.80
2018-09-27T01:20:13.446Z,98977.56
2018-09-27T01:22:41.172Z,98980.53
2018-09-27T01:25:08.860Z,98981.59
2018-09-27T01:27:36.575Z,98980.78
2018-09-27T01:30:04.343Z,98981.58
2018-09-27T01:32:31.993Z,98981.03
2018-09-27T01:34:59.695Z,98978.63
2018-09-27T01:37:27.365Z,98981.03
2018-09-27T01:39:55.018Z,98978.63
2018-09-27T01:42:22.673Z,98979.69
2018-09-27T01:44:50.517Z,98980.50
2018-09-27T01:47:18.187Z,98981.03
2018-09-27T01:49:45.847Z,98980.53
2018-09-27T01:52:13.530Z,98979.72
2018-09-27T01:54:41.165Z,98981.88
2018-09-27T01:57:08.819Z,98972.19
2018-09-27T01:59:36.467Z,98974.08
2018-09-27T02:02:04.118Z,98975.96
2018-09-27T02:04:31.742Z,98982.15
2018-09-27T02:06:59.368Z,98975.70
2018-09-27T02:09:27.023Z,98973.58
2018-09-27T02:11:54.674Z,98964.67
2018-09-27T02:14:22.321Z,98966.30
2018-09-27T02:16:49.953Z,98877.66
2018-09-27T02:19:17.777Z,98967.36
2018-09-27T02:21:45.401Z,98956.36
2018-09-27T02:24:13.052Z,98959.30
2018-09-27T02:26:40.672Z,98957.98
2018-09-27T02:29:08.402Z,98950.45
2018-09-27T02:31:36.030Z,98946.17
2018-09-27T02:34:03.705Z,98939.99
2018-09-27T02:36:31.321Z,98940.82
2018-09-27T02:38:58.946Z,98942.67
2018-09-27T02:41:26.637Z,98937.30
2018-09-27T02:43:54.265Z,98931.12
2018-09-27T02:46:22.014Z,98933.80
2018-09-27T02:48:49.624Z,98930.59
2018-09-27T02:51:17.236Z,98930.86
2018-09-27T02:53:44.854Z,98935.70
2018-09-27T02:56:12.489Z,98930.58
2018-09-27T02:58:40.120Z,98924.42
2018-09-27T03:01:07.778Z,98928.98
2018-09-27T03:03:35.401Z,98929.52
2018-09-27T03:06:03.038Z,98926.85
2018-09-27T03:08:30.665Z,98925.51
2018-09-27T03:10:58.294Z,98927.95
2018-09-27T03:13:25.919Z,98928.73
2018-09-27T03:15:53.531Z,98926.33
2018-09-27T03:18:21.592Z,98926.31
2018-09-27T03:20:49.282Z,98935.73
2018-09-27T03:23:16.852Z,98941.09
2018-09-27T03:25:44.513Z,98940.80
2018-09-27T03:28:12.170Z,98932.49
2018-09-27T03:30:39.914Z,98928.22
2018-09-27T03:33:07.724Z,98928.72
2018-09-27T03:35:35.400Z,98926.56
2018-09-27T03:38:03.030Z,98927.13
2018-09-27T03:40:30.667Z,98928.72
2018-09-27T03:42:58.329Z,98927.37
2018-09-27T03:45:25.964Z,98924.69
2018-09-27T03:47:53.576Z,98916.63
2018-09-27T03:50:21.196Z,98921.19
2018-09-27T03:52:48.951Z,98924.19
2018-09-27T03:55:16.584Z,98919.59
2018-09-27T03:57:44.217Z,98926.56
2018-09-27T04:00:11.910Z,98928.73
2018-09-27T04:02:39.526Z,98919.87
2018-09-27T04:05:07.153Z,98920.41
2018-09-27T04:07:34.788Z,98926.33
2018-09-27T04:10:02.415Z,98923.09
2018-09-27T04:12:30.068Z,98925.80
2018-09-27T04:14:57.694Z,98933.59
2018-09-27T04:17:25.345Z,98929.01
2018-09-27T04:19:52.988Z,98927.94
2018-09-27T04:22:20.612Z,98918.55
2018-09-27T04:24:48.260Z,98919.33
2018-09-27T04:27:15.904Z,98913.17
2018-09-27T04:29:43.571Z,98911.05
2018-09-27T04:32:11.199Z,98904.05
2018-09-27T04:34:38.812Z,98898.67
2018-09-27T04:37:06.429Z,98900.30
2018-09-27T04:39:34.073Z,98893.86
2018-09-27T04:42:01.696Z,98896.27
2018-09-27T04:44:29.356Z,98890.37
2018-09-27T04:46:57.025Z,98895.20
2018-09-27T04:49:24.722Z,98902.45
2018-09-27T04:51:52.503Z,98915.09
2018-09-27T04:54:20.222Z,98919.13
2018-09-27T04:56:47.902Z,98921.25
2018-09-27T04:59:15.641Z,98922.61
2018-09-27T05:01:43.389Z,98909.72
2018-09-27T05:04:11.112Z,98900.86
2018-09-27T05:06:38.847Z,98903.28
2018-09-27T05:09:06.790Z,98907.03
2018-09-27T05:11:34.577Z,98904.34
2018-09-27T05:14:02.331Z,98900.31
2018-09-27T05:16:30.076Z,98896.31
2018-09-27T05:18:57.897Z,98900.06
2018-09-27T05:21:25.711Z,98897.66
2018-09-27T05:23:53.457Z,98885.82
2018-09-27T05:26:21.179Z,98894.69
2018-09-27T05:28:48.911Z,98889.85
2018-09-27T05:31:16.629Z,98890.94
2018-09-27T05:33:44.407Z,98895.22
2018-09-27T05:36:12.171Z,98893.88
2018-09-27T05:38:40.077Z,98894.69
2018-09-27T05:41:07.856Z,98898.72
2018-09-27T05:43:35.601Z,98901.94
2018-09-27T05:46:03.344Z,98904.64
2018-09-27T05:48:31.089Z,98909.73
2018-09-27T05:50:58.820Z,98907.58
2018-09-27T05:53:26.544Z,98909.21
2018-09-27T05:55:54.346Z,98909.21
2018-09-27T05:58:22.065Z,98916.43
2018-09-27T06:00:49.815Z,98912.15
2018-09-27T06:03:17.537Z,98910.55
2018-09-27T06:05:45.259Z,98907.87
2018-09-27T06:08:12.980Z,98907.05
2018-09-27T06:10:40.792Z,98902.50
2018-09-27T06:13:08.520Z,98905.44
2018-09-27T06:15:36.572Z,98906.50
2018-09-27T06:18:04.325Z,98906.50
2018-09-27T06:20:32.065Z,98911.63
2018-09-27T06:22:59.893Z,98916.17
2018-09-27T06:25:27.897Z,98915.91
2018-09-27T06:27:55.637Z,98919.41
2018-09-27T06:30:23.473Z,98921.25
2018-09-27T06:32:51.223Z,98916.44
2018-09-27T06:35:19.145Z,98922.85
2018-09-27T06:37:46.879Z,98918.56
2018-09-27T06:40:14.644Z,98925.28
2018-09-27T06:42:42.417Z,98921.53
2018-09-27T06:45:10.509Z,98918.84
2018-09-27T06:47:38.258Z,98919.10
2018-09-27T06:50:06.377Z,98925.55
2018-09-27T06:52:34.238Z,98926.88
2018-09-27T06:55:02.192Z,98929.80
2018-09-27T06:57:29.913Z,98922.00
2018-09-27T06:59:57.728Z,98923.64
2018-09-27T07:02:25.649Z,98931.12
2018-09-27T07:04:53.485Z,98926.00
2018-09-27T07:07:21.320Z,98922.20
2018-09-27T07:09:49.133Z,98925.65
2018-09-27T07:12:17.012Z,98933.44
2018-09-27T07:14:44.666Z,98931.26
2018-09-27T07:17:12.411Z,98927.76
2018-09-27T07:19:40.177Z,98922.38
2018-09-27T07:22:07.938Z,98923.42
2018-09-27T07:24:35.773Z,98925.27
2018-09-27T07:27:03.764Z,98918.05
2018-09-27T07:29:31.529Z,98925.02
2018-09-27T07:31:59.247Z,98922.06
2018-09-27T07:34:26.977Z,98918.28
2018-09-27T07:36:54.741Z,98912.09
2018-09-27T07:39:22.478Z,98910.75
2018-09-27T07:41:50.213Z,98910.47
2018-09-27T07:44:17.973Z,98905.63
2018-09-27T07:46:45.736Z,98906.41
2018-09-27T07:49:13.498Z,98902.63
2018-09-27T07:51:41.261Z,98894.28
2018-09-27T07:54:09.053Z,98895.56
2018-09-27T07:56:37.133Z,98900.95
2018-09-27T07:59:10.361Z,98899.32
2018-09-27T08:01:38.103Z,98898.75
2018-09-27T08:04:05.896Z,98895.56
2018-09-27T08:06:33.665Z,98877.59
2018-09-27T08:09:01.400Z,98899.54
2018-09-27T08:11:29.187Z,98899.82
2018-09-27T08:13:56.901Z,98900.04
2018-09-27T08:16:24.638Z,98897.56
2018-09-27T08:18:52.376Z,98907.27
2018-09-27T08:21:20.225Z,98901.10
2018-09-27T08:23:47.900Z,98906.73
2018-09-27T08:26:15.645Z,98908.36
2018-09-27T08:28:43.386Z,98903.48
2018-09-27T08:31:11.192Z,98899.44
2018-09-27T08:33:38.904Z,98900.75
2018-09-27T08:36:06.682Z,98892.69
2018-09-27T08:38:34.449Z,98885.67
2018-09-27T08:41:02.294Z,98875.48
2018-09-27T08:43:30.018Z,98874.38
2018-09-27T08:45:57.816Z,98878.67
2018-09-27T08:48:25.560Z,98880.30
2018-09-27T08:50:53.303Z,98875.98
2018-09-27T08:53:21.070Z,98869.78
2018-09-27T08:55:48.938Z,98870.59
2018-09-27T08:58:16.623Z,98805.36
2018-09-27T09:00:44.372Z,98871.34
2018-09-27T09:03:12.113Z,98872.44
2018-09-27T09:05:39.945Z,98876.97
2018-09-27T09:08:07.841Z,98868.37
2018-09-27T09:10:35.589Z,98861.64
2018-09-27T09:13:03.343Z,98854.91
2018-09-27T09:15:31.167Z,98856.79
2018-09-27T09:17:58.912Z,98850.56
2018-09-27T09:20:26.636Z,98850.28
2018-09-27T09:22:54.355Z,98844.13
2018-09-27T09:25:22.079Z,98848.16
2018-09-27T09:27:49.828Z,98843.05
2018-09-27T09:30:17.920Z,98836.82
2018-09-27T09:32:45.653Z,98841.67
2018-09-27T09:35:13.412Z,98836.61
2018-09-27T09:37:41.149Z,98839.27
2018-09-27T09:40:08.904Z,98836.05
2018-09-27T09:42:36.632Z,98831.20
2018-09-27T09:45:04.402Z,98827.97
2018-09-27T09:47:32.184Z,98828.47
2018-09-27T09:49:59.996Z,98822.31
2018-09-27T09:52:27.768Z,98818.27
2018-09-27T09:54:55.503Z,98815.59
2018-09-27T09:57:23.245Z,98814.24
2018-09-27T09:59:50.991Z,98812.89
2018-09-27T10:02:19.003Z,98808.58
2018-09-27T10:04:46.741Z,98806.98
2018-09-27T10:07:14.589Z,98803.20
2018-09-27T10:09:42.316Z,98794.34
2018-09-27T10:12:10.045Z,98794.06
2018-09-27T10:14:37.790Z,98783.30
2018-09-27T10:17:05.537Z,98784.69
2018-09-27T10:19:33.350Z,98777.67
2018-09-27T10:22:01.128Z,98780.66
2018-09-27T10:24:28.872Z,98770.42
2018-09-27T10:26:56.614Z,98769.31
2018-09-27T10:29:24.345Z,98763.98
2018-09-27T10:31:52.046Z,98759.09
2018-09-27T10:34:19.963Z,98756.40
2018-09-27T10:36:47.562Z,98759.91
2018-09-27T10:39:15.245Z,98754.27
2018-09-27T10:41:43.472Z,98746.45
2018-09-27T10:44:11.102Z,98748.08
2018-09-27T10:46:38.738Z,98745.15
2018-09-27T10:49:06.393Z,98742.45
2018-09-27T10:51:34.050Z,98740.30
2018-09-27T10:54:01.681Z,98731.41
2018-09-27T10:56:29.325Z,98726.61
2018-09-27T10:58:56.968Z,98727.66
2018-09-27T11:01:24.616Z,98721.43
2018-09-27T11:03:52.261Z,98721.72
2018-09-27T11:06:19.885Z,98713.64
2018-09-27T11:08:47.537Z,98718.25
2018-09-27T11:11:15.182Z,98710.66
2018-09-27T11:13:42.816Z,98708.75
2018-09-27T11:16:10.649Z,98703.36
2018-09-27T11:18:38.264Z,98696.64
2018-09-27T11:21:05.889Z,98689.91
2018-09-27T11:23:33.517Z,98684.25
2018-09-27T11:26:01.163Z,98683.71
2018-09-27T11:28:34.033Z,98676.17
2018-09-27T11:31:06.977Z,98679.38
2018-09-27T11:33:34.613Z,98673.77
2018-09-27T11:36:02.243Z,98670.55
2018-09-27T11:38:29.882Z,98665.94
2018-09-27T11:40:57.493Z,98663.20
2018-09-27T11:43:25.118Z,98660.80
2018-09-27T11:45:52.749Z,98654.07
2018-09-27T11:48:20.390Z,98648.41
2018-09-27T11:50:48.014Z,98636.30
2018-09-27T11:53:15.727Z,98641.95
2018-09-27T11:55:43.362Z,98638.16
2018-09-27T11:58:11.045Z,98636.81
2018-09-27T12:00:38.680Z,98631.14
2018-09-27T12:03:06.350Z,98629.55
2018-09-27T12:05:33.969Z,98620.91
2018-09-27T12:08:01.580Z,98616.83
2018-09-27T12:10:29.211Z,98616.59
2018-09-27T12:12:57.326Z,98606.63
2018-09-27T12:15:24.973Z,98608.76
2018-09-27T12:17:52.581Z,98606.06
2018-09-27T12:20:20.216Z,98596.63
2018-09-27T12:22:47.833Z,98591.55
2018-09-27T12:25:15.461Z,98595.28
2018-09-27T12:27:43.103Z,98593.38
2018-09-27T12:30:10.733Z,98590.69
2018-09-27T12:32:38.382Z,98580.48
2018-09-27T12:35:05.996Z,98577.50
2018-09-27T12:37:33.644Z,98576.41
2018-09-27T12:40:01.273Z,98571.02
2018-09-27T12:42:28.966Z,98570.20
2018-09-27T12:44:56.540Z,98565.10
2018-09-27T12:47:24.165Z,98559.13
2018-09-27T12:49:51.788Z,98558.56
2018-09-27T12:52:19.739Z,98545.39
2018-09-27T12:54:47.089Z,98540.00
2018-09-27T12:57:14.788Z,98537.02
2018-09-27T12:59:42.372Z,98533.76
2018-09-27T13:02:10.047Z,98525.16
2018-09-27T13:04:37.641Z,98518.42
2018-09-27T13:07:05.296Z,98521.11
2018-09-27T13:09:32.956Z,98511.40
2018-09-27T13:12:00.670Z,98503.86
2018-09-27T13:14:28.253Z,98504.38
2018-09-27T13:16:56.001Z,98501.39
2018-09-27T13:19:23.680Z,98487.18
2018-09-27T13:21:51.268Z,98489.33
2018-09-27T13:24:18.892Z,98486.34
2018-09-27T13:26:46.546Z,98475.58
2018-09-27T13:29:14.165Z,98477.22
2018-09-27T13:31:41.768Z,98474.53
2018-09-27T13:34:09.406Z,98465.11
2018-09-27T13:36:37.049Z,98465.30
2018-09-27T13:39:06.478Z,98462.36
2018-09-27T13:41:34.109Z,98449.15
2018-09-27T13:44:01.763Z,98444.03
2018-09-27T13:46:29.469Z,98437.55
2018-09-27T13:48:57.043Z,98440.23
2018-09-27T13:51:24.673Z,98431.87
2018-09-27T13:53:52.305Z,98430.52
2018-09-27T13:56:19.922Z,98426.55
2018-09-27T13:58:47.636Z,98423.28
2018-09-27T14:01:15.281Z,98411.98
2018-09-27T14:03:42.905Z,98405.48
2018-09-27T14:06:10.583Z,98403.55
2018-09-27T14:08:38.217Z,98406.84
2018-09-27T14:11:05.850Z,98405.77
2018-09-27T14:13:33.473Z,98401.96
2018-09-27T14:16:01.099Z,98395.23
2018-09-27T14:18:28.721Z,98388.75
2018-09-27T14:20:56.352Z,98385.58
2018-09-27T14:23:24.017Z,98382.31
2018-09-27T14:25:51.800Z,98372.59
2018-09-27T14:28:19.336Z,98376.69
2018-09-27T14:30:47.000Z,98371.31
2018-09-27T14:33:14.642Z,98371.61
2018-09-27T14:35:42.310Z,98369.16
2018-09-27T14:38:09.917Z,98374.81
2018-09-27T14:40:37.551Z,98365.92
2018-09-27T14:43:05.186Z,98361.05
2018-09-27T14:45:32.884Z,98355.67
2018-09-27T14:48:00.612Z,98356.20
2018-09-27T14:50:28.195Z,98352.92
2018-09-27T14:52:55.866Z,98354.27
2018-09-27T14:55:23.499Z,98348.04
2018-09-27T14:57:51.130Z,98348.38
2018-09-27T15:00:18.790Z,98347.02
2018-09-27T15:02:46.453Z,98344.30
2018-09-27T15:05:14.287Z,98341.61
2018-09-27T15:07:41.969Z,98341.61
2018-09-27T15:10:09.609Z,98337.27
2018-09-27T15:12:37.284Z,98339.22
2018-09-27T15:15:05.221Z,98334.61
2018-09-27T15:17:32.845Z,98334.61
2018-09-27T15:20:00.504Z,98331.08
2018-09-27T15:22:28.321Z,98331.63
2018-09-27T15:24:55.819Z,98329.80
2018-09-27T15:27:23.450Z,98327.11
2018-09-27T15:29:51.078Z,98320.91
2018-09-27T15:32:18.696Z,98319.27
2018-09-27T15:34:46.334Z,98313.95
2018-09-27T15:37:13.999Z,98311.80
2018-09-27T15:39:41.665Z,98311.56
2018-09-27T15:42:09.307Z,98298.88
2018-09-27T15:44:36.945Z,98298.10
2018-09-27T15:47:04.585Z,98297.83
2018-09-27T15:49:32.229Z,98300.22
2018-09-27T15:51:59.853Z,98298.64
2018-09-27T15:54:27.836Z,98300.28
2018-09-27T15:56:55.659Z,98279.00
2018-09-27T15:59:23.298Z,98302.44
2018-09-27T16:01:50.916Z,98293.55
2018-09-27T16:04:18.533Z,98294.91
2018-09-27T16:06:46.189Z,98299.75
2018-09-27T16:09:13.818Z,98293.05
2018-09-27T16:11:42.449Z,98293.86
2018-09-27T16:14:10.133Z,98286.89
2018-09-27T16:16:37.765Z,98281.00
2018-09-27T16:19:05.423Z,98279.12
2018-09-27T16:21:33.064Z,98278.25
2018-09-27T16:24:00.744Z,98271.88
2018-09-27T16:26:28.408Z,98264.11
2018-09-27T16:28:56.028Z,98259.77
2018-09-27T16:31:30.224Z,98254.63
2018-09-27T16:33:57.869Z,98249.31
2018-09-27T16:36:25.496Z,98242.08
2018-09-27T16:38:53.147Z,98247.73
2018-09-27T16:41:20.802Z,98242.58
2018-09-27T16:43:48.976Z,98238.84
2018-09-27T16:46:16.631Z,98234.81
2018-09-27T16:48:44.255Z,98234.06
2018-09-27T16:51:11.884Z,98231.38
2018-09-27T16:53:39.582Z,98231.61
2018-09-27T16:56:07.177Z,98229.83
2018-09-27T16:58:34.845Z,98224.20
2018-09-27T17:01:02.478Z,98222.63
2018-09-27T17:03:30.106Z,98215.89
2018-09-27T17:05:57.733Z,98216.13
2018-09-27T17:08:25.366Z,98218.63
2018-09-27T17:10:52.984Z,98214.28
2018-09-27T17:13:20.610Z,98216.50
2018-09-27T17:15:48.257Z,98213.23
2018-09-27T17:18:15.895Z,98208.13
2018-09-27T17:20:43.622Z,98212.16
2018-09-27T17:23:11.270Z,98207.56
2018-09-27T17:25:38.911Z,98216.38
2018-09-27T17:28:06.529Z,98210.45
2018-09-27T17:30:34.222Z,98203.22
2018-09-27T17:33:01.922Z,98203.28
2018-09-27T17:35:29.547Z,98200.83
2018-09-27T17:37:57.217Z,98198.14
2018-09-27T17:40:24.914Z,98197.84
2018-09-27T17:42:52.554Z,98202.14
2018-09-27T17:45:20.172Z,98205.97
2018-09-27T17:47:47.829Z,98197.91
2018-09-27T17:50:15.465Z,98195.75
2018-09-27T17:52:43.165Z,98203.05
2018-09-27T17:55:10.782Z,98203.82
2018-09-27T17:57:38.415Z,98202.00
2018-09-27T18:00:06.053Z,98195.52
2018-09-27T18:02:33.700Z,98198.70
2018-09-27T18:05:01.336Z,98195.75
2018-09-27T18:07:29.019Z,98196.32
2018-09-27T18:09:56.664Z,98190.38
2018-09-27T18:12:24.525Z,98193.33
2018-09-27T18:14:52.145Z,98192.83
2018-09-27T18:17:19.834Z,98195.34
2018-09-27T18:19:47.480Z,98196.69
2018-09-27T18:22:15.136Z,98198.27
2018-09-27T18:24:42.794Z,98195.04
2018-09-27T18:27:10.428Z,98194.53
2018-09-27T18:29:38.057Z,98196.98
2018-09-27T18:32:05.709Z,98193.13
2018-09-27T18:34:33.348Z,98196.69
2018-09-27T18:37:01.054Z,98197.73
2018-09-27T18:39:28.689Z,98202.61
2018-09-27T18:41:56.319Z,98197.23
2018-09-27T18:44:23.973Z,98193.19
2018-09-27T18:46:51.657Z,98201.02
2018-09-27T18:49:19.290Z,98198.03
2018-09-27T18:51:46.922Z,98202.84
2018-09-27T18:54:14.572Z,98198.88
2018-09-27T18:56:42.220Z,98196.69
2018-09-27T18:59:09.854Z,98197.83
2018-09-27T19:01:37.489Z,98195.07
2018-09-27T19:04:05.114Z,98190.80
2018-09-27T19:06:32.733Z,98199.70
2018-09-27T19:09:00.358Z,98191.34
2018-09-27T19:11:27.977Z,98188.65
2018-09-27T19:13:55.627Z,98182.97
2018-09-27T19:16:23.253Z,98179.80
2018-09-27T19:18:50.868Z,98190.86
2018-09-27T19:21:18.519Z,98184.14
2018-09-27T19:23:46.142Z,98188.17
2018-09-27T19:26:13.794Z,98180.84
2018-09-27T19:28:41.436Z,98184.38
2018-09-27T19:31:09.083Z,98179.84
2018-09-27T19:33:36.710Z,98176.61
2018-09-27T19:36:04.340Z,98183.88
2018-09-27T19:38:31.951Z,98183.88
2018-09-27T19:40:59.591Z,98184.98
2018-09-27T19:43:27.238Z,98181.48
2018-09-27T19:45:54.885Z,98179.36
2018-09-27T19:48:22.529Z,98178.25
2018-09-27T19:50:50.159Z,98176.30
2018-09-27T19:53:17.791Z,98172.33
2018-09-27T19:55:45.409Z,98170.72
2018-09-27T19:58:13.062Z,98171.29
2018-09-27T20:00:40.704Z,98169.95
2018-09-27T20:03:08.364Z,98167.80
2018-09-27T20:05:36.011Z,98148.15
2018-09-27T20:08:03.650Z,98170.72
2018-09-27T20:10:31.288Z,98169.95
2018-09-27T20:12:59.025Z,98167.26
2018-09-27T20:15:26.654Z,98159.13
2018-09-27T20:17:54.304Z,98164.80
2018-09-27T20:20:21.946Z,98157.03
2018-09-27T20:22:49.615Z,98151.95
2018-09-27T20:25:17.242Z,98154.14
2018-09-27T20:27:44.946Z,98150.84
2018-09-27T20:30:12.597Z,98154.41
2018-09-27T20:32:40.224Z,98152.26
2018-09-27T20:35:07.860Z,98151.72
2018-09-27T20:37:35.494Z,98152.50
2018-09-27T20:40:03.175Z,98154.14
2018-09-27T20:42:30.816Z,98152.80
2018-09-27T20:44:58.478Z,98161.13
2018-09-27T20:47:26.137Z,98160.56
2018-09-27T20:49:53.777Z,98153.60
2018-09-27T20:52:21.426Z,98151.22
2018-09-27T20:54:49.063Z,98153.67
2018-09-27T20:57:16.726Z,98149.06
2018-09-27T20:59:44.425Z,98146.94
2018-09-27T21:02:12.055Z,98142.34
2018-09-27T21:04:39.691Z,98138.61
2018-09-27T21:07:07.335Z,98138.13
2018-09-27T21:09:34.974Z,98135.08
2018-09-27T21:12:02.618Z,98131.58
2018-09-27T21:14:30.229Z,98124.63
2018-09-27T21:16:57.881Z,98120.82
2018-09-27T21:19:25.579Z,98125.22
2018-09-27T21:21:53.202Z,98122.47
2018-09-27T21:24:20.842Z,98125.97
2018-09-27T21:26:48.473Z,98125.97
2018-09-27T21:29:16.102Z,98125.46
2018-09-27T21:31:43.756Z,98119.55
2018-09-27T21:34:11.389Z,98115.27
2018-09-27T21:36:39.029Z,98115.81
2018-09-27T21:39:07.300Z,98113.93
2018-09-27T21:41:34.968Z,98116.65
2018-09-27T21:44:02.633Z,98117.16
2018-09-27T21:46:30.258Z,98121.19
2018-09-27T21:48:57.946Z,98119.11
2018-09-27T21:51:25.594Z,98116.41
2018-09-27T21:53:53.236Z,98118.30
2018-09-27T21:56:20.861Z,98112.92
2018-09-27T21:58:48.502Z,98114.27
2018-09-27T22:01:16.209Z,98111.88
2018-09-27T22:03:43.840Z,98103.03
2018-09-27T22:06:11.464Z,98104.38
2018-09-27T22:08:39.097Z,98106.80
2018-09-27T22:11:06.743Z,98097.99
2018-09-27T22:13:34.409Z,98099.84
2018-09-27T22:16:02.035Z,98101.42
2018-09-27T22:18:29.705Z,98097.95
2018-09-27T22:20:57.320Z,98104.11
2018-09-27T22:23:25.020Z,98101.19
2018-09-27T22:25:52.678Z,98101.98
2018-09-27T22:28:20.313Z,98089.38
2018-09-27T22:30:47.945Z,98093.95
2018-09-27T22:33:15.585Z,98095.61
2018-09-27T22:35:43.205Z,98090.19
2018-09-27T22:38:10.821Z,98088.34
2018-09-27T22:40:38.443Z,98083.23
2018-09-27T22:43:06.127Z,98084.58
2018-09-27T22:45:33.748Z,98090.23
2018-09-27T22:48:01.386Z,98084.05
2018-09-27T22:50:29.043Z,98084.58
2018-09-27T22:52:56.677Z,98083.23
2018-09-27T22:55:24.332Z,98082.97
2018-09-27T22:57:51.984Z,98080.84
2018-09-27T23:00:19.645Z,98084.34
2018-09-27T23:02:47.273Z,98082.16
2018-09-27T23:05:14.893Z,98075.47
2018-09-27T23:07:42.512Z,98083.84
2018-09-27T23:10:10.157Z,98077.92
2018-09-27T23:12:37.851Z,98068.52
2018-09-27T23:15:05.725Z,98058.56
2018-09-27T23:17:33.395Z,98070.09
2018-09-27T23:20:01.005Z,98060.52
2018-09-27T23:22:28.627Z,98056.17
2018-09-27T23:24:56.245Z,98061.55
2018-09-27T23:27:23.925Z,98058.06
2018-09-27T23:29:51.581Z,98058.06
2018-09-27T23:32:19.236Z,98052.98
2018-09-27T23:34:46.914Z,98051.41
2018-09-27T23:37:14.537Z,98048.95
2018-09-27T23:39:42.173Z,98052.45
2018-09-27T23:42:09.800Z,98047.61
2018-09-27T23:44:37.424Z,98048.72
2018-09-27T23:47:05.048Z,98046.03
2018-09-27T23:49:32.689Z,98051.14
2018-09-27T23:52:00.308Z,98047.38
2018-09-27T23:54:27.932Z,98050.59
2018-09-27T23:56:55.624Z,98049.80
2018-09-27T23:59:23.248Z,98049.55
